sensor_id;sensor_type;location;lat;lon;timestamp;pressure;altitude;pressure_sealevel;temperature;humidity
45939;BME280;31650;48.818;9.116;2023-06-05T00:12:02;97979.66;;;11.46;71.00
45939;BME280;31650;48.818;9.116;2023-06-05T00:27:02;97983.41;;;11.27;71.58
45939;BME280;31650;48.818;9.116;2023-06-05T00:42:02;97984.50;;;11.01;73.72
45939;BME280;31650;48.818;9.116;2023-06-05T00:57:03;97985.66;;;10.61;77.40
45939;BME280;31650;48.818;9.116;2023-06-05T01:12:46;97980.59;;;10.33;80.05
45939;BME280;31650;48.818;9.116;2023-06-05T01:27:30;97988.13;;;10.24;82.92
45939;BME280;31650;48.818;9.116;2023-06-05T01:42:32;97985.81;;;9.90;88.15
45939;BME280;31650;48.818;9.116;2023-06-05T01:57:32;97991.34;;;9.63;96.28
45939;BME280;31650;48.818;9.116;2023-06-05T02:12:34;97989.28;;;9.45;98.39
45939;BME280;31650;48.818;9.116;2023-06-05T02:27:34;97986.13;;;9.62;93.91
45939;BME280;31650;48.818;9.116;2023-06-05T02:42:35;97981.19;;;9.25;100.00
45939;BME280;31650;48.818;9.116;2023-06-05T02:57:35;97980.84;;;8.95;100.00
45939;BME280;31650;48.818;9.116;2023-06-05T03:12:41;97992.50;;;8.82;100.00
45939;BME280;31650;48.818;9.116;2023-06-05T03:27:42;97988.13;;;8.81;100.00
45939;BME280;31650;48.818;9.116;2023-06-05T03:42:42;97991.47;;;8.83;100.00
45939;BME280;31650;48.818;9.116;2023-06-05T03:57:42;97995.44;;;9.01;100.00
45939;BME280;31650;48.818;9.116;2023-06-05T04:12:42;98012.50;;;9.21;100.00
45939;BME280;31650;48.818;9.116;2023-06-05T04:27:43;98023.94;;;9.56;100.00
45939;BME280;31650;48.818;9.116;2023-06-05T04:42:44;98002.78;;;10.23;100.00
45939;BME280;31650;48.818;9.116;2023-06-05T04:57:44;97997.00;;;11.52;85.42
45939;BME280;31650;48.818;9.116;2023-06-05T05:12:44;97994.50;;;12.24;78.97
45939;BME280;31650;48.818;9.116;2023-06-05T05:27:45;97997.91;;;12.92;71.83
45939;BME280;31650;48.818;9.116;2023-06-05T05:42:45;97981.59;;;16.01;62.35
45939;BME280;31650;48.818;9.116;2023-06-05T05:57:46;97988.78;;;18.48;51.87
45939;BME280;31650;48.818;9.116;2023-06-05T06:12:46;97987.78;;;19.46;49.25
45939;BME280;31650;48.818;9.116;2023-06-05T06:27:47;97973.75;;;21.17;45.30
45939;BME280;31650;48.818;9.116;2023-06-05T06:42:48;97991.09;;;22.59;42.58
45939;BME280;31650;48.818;9.116;2023-06-05T06:57:48;97993.72;;;22.26;44.08
45939;BME280;31650;48.818;9.116;2023-06-05T07:12:49;97978.97;;;24.46;38.09
45939;BME280;31650;48.818;9.116;2023-06-05T07:27:49;97979.91;;;24.41;38.50
45939;BME280;31650;48.818;9.116;2023-06-05T07:42:50;97974.16;;;24.52;38.94
45939;BME280;31650;48.818;9.116;2023-06-05T07:57:50;97978.69;;;25.20;39.02
45939;BME280;31650;48.818;9.116;2023-06-05T08:12:53;97962.03;;;26.80;36.51
45939;BME280;31650;48.818;9.116;2023-06-05T08:27:53;97956.25;;;27.46;38.13
45939;BME280;31650;48.818;9.116;2023-06-05T08:42:53;97951.72;;;27.97;39.05
45939;BME280;31650;48.818;9.116;2023-06-05T08:57:54;97950.31;;;28.51;36.40
45939;BME280;31650;48.818;9.116;2023-06-05T09:28:07;97935.19;;;28.73;37.33
45939;BME280;31650;48.818;9.116;2023-06-05T09:43:14;97922.84;;;29.61;36.19
45939;BME280;31650;48.818;9.116;2023-06-05T09:58:16;97916.69;;;29.01;37.53
45939;BME280;31650;48.818;9.116;2023-06-05T10:13:17;97905.88;;;29.12;34.95
45939;BME280;31650;48.818;9.116;2023-06-05T10:43:23;97899.53;;;29.03;33.09
45939;BME280;31650;48.818;9.116;2023-06-05T10:58:23;97890.66;;;29.92;30.81
45939;BME280;31650;48.818;9.116;2023-06-05T11:13:25;97891.34;;;30.63;26.49
45939;BME280;31650;48.818;9.116;2023-06-05T11:28:41;97872.69;;;30.83;28.65
45939;BME280;31650;48.818;9.116;2023-06-05T11:43:42;97849.72;;;31.21;26.49
45939;BME280;31650;48.818;9.116;2023-06-05T11:58:43;97866.03;;;30.22;26.89
45939;BME280;31650;48.818;9.116;2023-06-05T12:13:45;97836.91;;;32.51;24.57
45939;BME280;31650;48.818;9.116;2023-06-05T12:28:45;97827.78;;;30.83;25.75
45939;BME280;31650;48.818;9.116;2023-06-05T12:43:47;97810.63;;;30.84;25.97
45939;BME280;31650;48.818;9.116;2023-06-05T12:58:58;97817.34;;;30.14;27.71
45939;BME280;31650;48.818;9.116;2023-06-05T13:13:58;97803.28;;;30.95;26.49
45939;BME280;31650;48.818;9.116;2023-06-05T13:28:58;97792.06;;;30.39;26.47
45939;BME280;31650;48.818;9.116;2023-06-05T13:43:58;97766.13;;;32.13;25.85
45939;BME280;31650;48.818;9.116;2023-06-05T13:58:59;97769.19;;;30.25;27.20
45939;BME280;31650;48.818;9.116;2023-06-05T14:13:59;97747.13;;;31.91;25.62
45939;BME280;31650;48.818;9.116;2023-06-05T14:28:59;97749.84;;;31.52;25.75
45939;BME280;31650;48.818;9.116;2023-06-05T14:44:00;97729.19;;;31.79;24.07
45939;BME280;31650;48.818;9.116;2023-06-05T14:59:00;97723.38;;;32.04;24.23
45939;BME280;31650;48.818;9.116;2023-06-05T15:14:01;97728.06;;;31.17;24.92
45939;BME280;31650;48.818;9.116;2023-06-05T15:29:02;97728.41;;;32.34;24.01
45939;BME280;31650;48.818;9.116;2023-06-05T15:44:02;97716.78;;;32.16;23.19
45939;BME280;31650;48.818;9.116;2023-06-05T15:59:03;97715.31;;;29.91;25.39
45939;BME280;31650;48.818;9.116;2023-06-05T16:14:03;97706.81;;;30.28;24.95
45939;BME280;31650;48.818;9.116;2023-06-05T16:29:03;97698.88;;;29.77;26.37
45939;BME280;31650;48.818;9.116;2023-06-05T16:44:04;97698.78;;;30.26;25.00
45939;BME280;31650;48.818;9.116;2023-06-05T16:59:11;97710.22;;;29.56;26.12
45939;BME280;31650;48.818;9.116;2023-06-05T17:14:11;97706.50;;;29.27;26.71
45939;BME280;31650;48.818;9.116;2023-06-05T17:29:11;97700.75;;;28.33;27.71
45939;BME280;31650;48.818;9.116;2023-06-05T17:44:11;97704.28;;;28.09;28.36
45939;BME280;31650;48.818;9.116;2023-06-05T17:59:13;97707.00;;;27.07;28.67
45939;BME280;31650;48.818;9.116;2023-06-05T18:14:14;97719.13;;;26.64;29.76
45939;BME280;31650;48.818;9.116;2023-06-05T18:29:14;97717.75;;;25.31;32.21
45939;BME280;31650;48.818;9.116;2023-06-05T18:44:14;97711.97;;;24.34;33.57
45939;BME280;31650;48.818;9.116;2023-06-05T18:59:15;97712.78;;;22.51;36.59
45939;BME280;31650;48.818;9.116;2023-06-05T19:14:15;97747.78;;;21.52;39.47
45939;BME280;31650;48.818;9.116;2023-06-05T19:29:17;97751.13;;;20.77;41.00
45939;BME280;31650;48.818;9.116;2023-06-05T19:44:17;97773.66;;;20.26;42.42
45939;BME280;31650;48.818;9.116;2023-06-05T19:59:18;97797.72;;;20.54;42.17
45939;BME280;31650;48.818;9.116;2023-06-05T20:14:18;97826.69;;;20.62;50.53
45939;BME280;31650;48.818;9.116;2023-06-05T20:29:18;97830.53;;;19.67;63.08
45939;BME280;31650;48.818;9.116;2023-06-05T20:44:20;97834.59;;;19.04;68.99
45939;BME280;31650;48.818;9.116;2023-06-05T20:59:21;97838.75;;;18.45;73.27
45939;BME280;31650;48.818;9.116;2023-06-05T21:14:22;97837.31;;;17.97;78.53
45939;BME280;31650;48.818;9.116;2023-06-05T21:29:22;97840.06;;;17.97;77.91
45939;BME280;31650;48.818;9.116;2023-06-05T21:44:23;97844.56;;;17.08;84.67
45939;BME280;31650;48.818;9.116;2023-06-05T21:59:23;97857.97;;;16.29;94.00
45939;BME280;31650;48.818;9.116;2023-06-05T22:14:23;97866.59;;;16.16;97.67
45939;BME280;31650;48.818;9.116;2023-06-05T22:29:25;97877.97;;;15.75;100.00
45939;BME280;31650;48.818;9.116;2023-06-05T22:44:25;97900.91;;;15.30;100.00
45939;BME280;31650;48.818;9.116;2023-06-05T22:59:25;97909.69;;;15.32;100.00
45939;BME280;31650;48.818;9.116;2023-06-05T23:14:26;97914.34;;;15.15;100.00
45939;BME280;31650;48.818;9.116;2023-06-05T23:29:26;97918.22;;;14.80;100.00
45939;BME280;31650;48.818;9.116;2023-06-05T23:44:27;97920.53;;;14.72;100.00
45939;BME280;31650;48.818;9.116;2023-06-05T23:59:27;97917.97;;;14.36;100.00
